Time;durP1;ratioP1;P1;durP2;ratioP2;P2;SDS_P1;SDS_P2;PMS_P1;PMS_P2;Temp;Humidity;BMP_temperature;BMP_pressure;BME280_temperature;BME280_humidity;BME280_pressure;Samples;Min_cycle;Max_cycle;Signal;HPM_P1;HPM_P2
2023/10/30 00:02:07;;;;;;;13.67;6.60;;;;;;;-144.30;71.55;85656.88;5031277;28;20591;-74
2023/10/30 00:04:34;;;;;;;11.93;6.57;;;;;;;-144.30;71.93;85692.66;5031108;28;20569;-74
2023/10/30 00:07:01;;;;;;;11.90;6.40;;;;;;;-144.30;71.67;85654.88;5031193;28;20212;-73
2023/10/30 00:09:28;;;;;;;11.70;6.90;;;;;;;-144.30;71.76;85635.00;5030714;28;20212;-75
2023/10/30 00:11:55;;;;;;;8.97;6.53;;;;;;;-144.30;71.86;85670.78;5031216;28;20280;-74
2023/10/30 00:14:22;;;;;;;14.63;6.67;;;;;;;-144.30;72.25;85658.84;5030976;28;20244;-74
2023/10/30 00:16:49;;;;;;;12.63;6.07;;;;;;;-144.30;72.69;85682.72;5030766;28;20602;-75
2023/10/30 00:19:17;;;;;;;12.40;5.60;;;;;;;-144.30;72.88;85700.59;5030725;28;20673;-74
2023/10/30 00:21:44;;;;;;;12.03;6.43;;;;;;;-144.30;72.56;85674.75;5030489;28;20207;-74
2023/10/30 00:24:11;;;;;;;12.23;6.23;;;;;;;-144.30;72.41;85658.84;5030516;28;20197;-73
2023/10/30 00:26:39;;;;;;;12.03;5.53;;;;;;;-144.30;72.66;85690.66;5030720;28;20227;-74
2023/10/30 00:29:06;;;;;;;11.00;5.67;;;;;;;-144.30;73.02;85702.59;5030683;28;20701;-74
2023/10/30 00:31:34;;;;;;;11.47;6.13;;;;;;;-144.30;73.48;85738.38;5030586;28;20290;-74
2023/10/30 00:34:01;;;;;;;13.53;5.73;;;;;;;-144.30;73.29;85696.63;5030447;28;20208;-74
2023/10/30 00:36:29;;;;;;;8.30;5.80;;;;;;;-144.30;73.34;85686.69;5030198;28;20233;-74
2023/10/30 00:38:56;;;;;;;9.80;6.33;;;;;;;-144.30;73.76;85670.78;5030690;28;20212;-74
2023/10/30 00:41:22;;;;;;;10.97;6.07;;;;;;;-144.30;74.64;85730.41;5030464;28;20221;-73
2023/10/30 00:43:49;;;;;;;8.30;6.13;;;;;;;-144.30;75.32;85756.28;5030879;28;20202;-74
2023/10/30 00:46:17;;;;;;;14.30;6.60;;;;;;;-144.30;75.99;85690.66;5030348;28;20189;-74
2023/10/30 00:48:44;;;;;;;11.47;6.53;;;;;;;-144.30;76.27;85766.22;5029941;28;20237;-74
2023/10/30 00:51:11;;;;;;;13.50;6.47;;;;;;;-144.30;76.36;85686.69;5029910;28;20205;-73
2023/10/30 00:53:39;;;;;;;9.57;6.40;;;;;;;-144.30;76.24;85738.38;5029849;28;20284;-73
2023/10/30 00:56:06;;;;;;;14.07;6.33;;;;;;;-144.30;76.64;85744.34;5030044;28;20656;-74
2023/10/30 00:58:33;;;;;;;14.70;6.53;;;;;;;-144.30;76.63;85704.56;5030105;28;20715;-74
2023/10/30 01:01:00;;;;;;;11.13;6.00;;;;;;;-144.30;76.08;85732.41;5030250;28;20609;-74
2023/10/30 01:03:27;;;;;;;11.73;6.00;;;;;;;-144.30;75.76;85627.03;5029990;28;20666;-74
2023/10/30 01:05:58;;;;;;;12.13;5.37;;;;;;;-144.30;75.22;85688.66;5030312;28;20193;-75
2023/10/30 01:08:25;;;;;;;10.60;6.00;;;;;;;-144.30;74.96;85724.47;5029980;28;20197;-75
2023/10/30 01:10:53;;;;;;;7.73;5.53;;;;;;;-144.30;75.25;85768.19;5030398;28;20220;-73
2023/10/30 01:13:20;;;;;;;9.33;4.83;;;;;;;-144.30;74.87;85756.28;5030125;28;20237;-74
2023/10/30 01:15:47;;;;;;;9.53;5.43;;;;;;;-144.30;74.96;85736.38;5029973;28;20232;-75
2023/10/30 01:18:15;;;;;;;12.93;5.27;;;;;;;-144.30;74.97;85778.13;5029600;28;20204;-75
2023/10/30 01:20:42;;;;;;;12.23;5.60;;;;;;;-144.30;74.87;85766.22;5029673;28;20193;-73
2023/10/30 01:23:09;;;;;;;7.87;5.47;;;;;;;-144.30;74.70;85708.56;5029597;28;20201;-74
2023/10/30 01:25:36;;;;;;;11.57;5.27;;;;;;;-144.30;74.83;85744.34;5029635;28;20228;-74
2023/10/30 01:28:05;;;;;;;8.00;5.30;;;;;;;-144.30;74.89;85748.31;5029680;28;20208;-74
2023/10/30 01:30:32;;;;;;;12.83;5.40;;;;;;;-144.30;74.62;85738.38;5029687;28;20251;-75
2023/10/30 01:32:59;;;;;;;6.93;5.07;;;;;;;-144.30;75.51;85796.03;5029783;28;20209;-72
2023/10/30 01:35:26;;;;;;;8.50;5.67;;;;;;;-144.30;76.71;85764.22;5029497;28;20642;-75
2023/10/30 01:37:53;;;;;;;9.47;5.13;;;;;;;-144.30;76.51;85798.03;5029757;28;20201;-74
2023/10/30 01:40:20;;;;;;;6.07;5.27;;;;;;;-144.30;76.81;85833.81;5029731;28;20197;-75
2023/10/30 01:42:47;;;;;;;6.80;5.03;;;;;;;-144.30;76.88;85762.22;5029566;28;20201;-74
2023/10/30 01:45:16;;;;;;;10.50;5.50;;;;;;;-144.30;76.92;85786.09;5029396;28;20215;-74
2023/10/30 01:47:44;;;;;;;8.20;4.93;;;;;;;-144.30;76.51;85803.97;5029662;28;20636;-73
2023/10/30 01:50:14;;;;;;;13.57;4.77;;;;;;;-144.30;76.38;85756.28;5030092;28;20688;-81
2023/10/30 01:52:43;;;;;;;5.37;4.60;;;;;;;-144.30;76.15;85786.09;5030227;28;20292;-81
2023/10/30 01:55:10;;;;;;;9.17;5.00;;;;;;;-144.30;76.41;85798.03;5030334;28;20197;-82
2023/10/30 01:57:38;;;;;;;7.33;4.80;;;;;;;-144.30;76.68;85794.03;5030876;28;20197;-80
2023/10/30 02:00:05;;;;;;;9.50;4.90;;;;;;;-144.30;76.94;86058.47;5030619;28;20240;-81
2023/10/30 02:02:35;;;;;;;6.73;5.17;;;;;;;-144.30;76.46;85798.03;5030137;28;20229;-80
2023/10/30 02:05:02;;;;;;;9.03;4.90;;;;;;;-144.30;76.17;85802.00;5030487;28;20674;-80
2023/10/30 02:07:31;;;;;;;8.63;5.03;;;;;;;-144.30;76.10;85730.41;5030332;28;20200;-82
2023/10/30 02:09:58;;;;;;;6.57;4.90;;;;;;;-144.30;76.03;85746.31;5030375;28;20692;-80
2023/10/30 02:12:25;;;;;;;6.27;4.30;;;;;;;-144.30;75.88;85782.13;5030056;28;20661;-80
2023/10/30 02:14:52;;;;;;;5.53;4.20;;;;;;;-144.30;75.52;85744.34;5029668;28;20688;-80
2023/10/30 02:17:19;;;;;;;5.23;4.03;;;;;;;-144.30;75.76;85758.25;5031208;28;20696;-80
2023/10/30 02:19:47;;;;;;;4.77;4.37;;;;;;;-144.30;76.04;85770.19;5033151;28;20323;-80
2023/10/30 02:22:15;;;;;;;6.10;4.77;;;;;;;-144.30;76.18;85766.22;5032889;28;20194;-80
2023/10/30 02:24:41;;;;;;;7.53;4.60;;;;;;;-144.30;76.20;85758.25;5032861;28;20208;-81
2023/10/30 02:27:10;;;;;;;8.17;4.63;;;;;;;-144.30;76.27;85794.03;5032939;28;20225;-80
2023/10/30 02:29:37;;;;;;;5.50;4.13;;;;;;;-144.30;76.21;85766.22;5033197;28;20647;-80
2023/10/30 02:32:05;;;;;;;5.90;4.00;;;;;;;-144.30;75.45;85792.06;5033139;28;20570;-81
2023/10/30 02:34:32;;;;;;;4.73;3.83;;;;;;;-144.30;74.96;85746.31;5032710;28;20205;-80
2023/10/30 02:37:00;;;;;;;4.53;4.03;;;;;;;-144.30;75.18;85780.13;5032593;28;20616;-81
2023/10/30 02:39:32;;;;;;;6.17;4.50;;;;;;;-144.30;74.77;85720.47;5032367;28;20605;-80
2023/10/30 02:42:00;;;;;;;9.07;4.00;;;;;;;-144.30;74.72;85768.19;5032669;28;20205;-81
2023/10/30 02:44:28;;;;;;;5.07;3.87;;;;;;;-144.30;74.07;85748.31;5032494;28;20207;-81
2023/10/30 02:46:55;;;;;;;5.70;4.00;;;;;;;-144.30;73.93;85758.25;5032511;28;20585;-81
2023/10/30 02:49:23;;;;;;;5.90;3.93;;;;;;;-144.30;73.61;85762.22;5032337;28;20201;-82
2023/10/30 02:51:50;;;;;;;9.03;4.33;;;;;;;-144.30;73.59;85404.38;5032050;28;20637;-81
2023/10/30 02:54:17;;;;;;;4.60;4.20;;;;;;;-144.30;73.65;85770.19;5032161;28;20189;-82
2023/10/30 02:56:44;;;;;;;8.70;4.67;;;;;;;-144.30;73.68;85750.31;5032030;28;20228;-81
2023/10/30 02:59:11;;;;;;;7.07;4.50;;;;;;;-144.30;73.77;85742.34;5032620;28;20197;-81
2023/10/30 03:01:39;;;;;;;6.43;3.93;;;;;;;-144.30;74.04;85752.28;5032377;28;20584;-81
2023/10/30 03:04:06;;;;;;;7.53;3.50;;;;;;;-144.30;73.94;85750.31;5032128;28;20689;-81
2023/10/30 03:06:33;;;;;;;8.33;3.83;;;;;;;-144.30;73.51;85728.44;5032108;28;20604;-81
2023/10/30 03:09:00;;;;;;;5.30;3.77;;;;;;;-144.30;73.67;85694.63;5032391;28;20248;-80
2023/10/30 03:11:27;;;;;;;4.20;3.90;;;;;;;-144.30;73.53;85744.34;5032188;28;20577;-80
2023/10/30 03:13:54;;;;;;;7.60;4.00;;;;;;;-144.30;73.51;85714.53;5032085;28;20671;-80
2023/10/30 03:16:20;;;;;;;5.33;3.60;;;;;;;-144.30;73.41;85748.31;5031959;28;20229;-81
2023/10/30 03:18:49;;;;;;;5.07;3.67;;;;;;;-144.30;73.68;85758.25;5031701;28;20200;-80
2023/10/30 03:21:16;;;;;;;5.50;3.57;;;;;;;-144.30;73.96;85742.34;5031844;28;20590;-80
2023/10/30 03:23:42;;;;;;;7.40;3.70;;;;;;;-144.30;73.66;85708.56;5031747;28;20194;-80
2023/10/30 03:26:09;;;;;;;5.63;3.83;;;;;;;-144.30;73.75;85748.31;5032024;28;20196;-80
2023/10/30 03:28:36;;;;;;;9.47;3.77;;;;;;;-144.30;73.68;85756.28;5030946;28;20202;-80
2023/10/30 03:31:07;;;;;;;8.13;3.53;;;;;;;-144.30;73.67;85724.47;5031666;28;20201;-81
2023/10/30 03:33:33;;;;;;;6.30;3.80;;;;;;;-144.30;74.02;85760.25;5031566;28;20201;-81
2023/10/30 03:36:02;;;;;;;9.73;3.80;;;;;;;-144.30;74.28;85746.31;5031809;28;20252;-81
2023/10/30 03:38:29;;;;;;;7.80;4.03;;;;;;;-144.30;74.44;85736.38;5032028;28;20605;-81
2023/10/30 03:40:56;;;;;;;5.47;3.33;;;;;;;-144.30;74.31;85788.09;5031791;28;20197;-80
2023/10/30 03:43:23;;;;;;;7.40;4.17;;;;;;;-144.30;73.84;85788.09;5031775;28;20201;-80
2023/10/30 03:45:50;;;;;;;5.53;3.83;;;;;;;-144.30;73.99;85802.00;5031413;28;20197;-80
2023/10/30 03:48:16;;;;;;;4.57;3.90;;;;;;;-144.30;74.07;85621.06;5031326;28;20197;-78
2023/10/30 03:50:43;;;;;;;6.17;3.83;;;;;;;-144.30;74.14;85746.31;5028597;28;20198;-81
2023/10/30 03:53:11;;;;;;;7.23;3.77;;;;;;;-144.30;74.07;85815.91;5031627;28;20201;-81
2023/10/30 03:55:38;;;;;;;7.07;4.33;;;;;;;-144.30;73.70;85754.28;5031392;28;20673;-80
2023/10/30 03:58:05;;;;;;;5.67;4.40;;;;;;;-144.30;73.75;85758.25;5031744;28;20243;-80
2023/10/30 04:00:32;;;;;;;5.53;4.50;;;;;;;-144.30;73.38;85796.03;5031244;28;20193;-81
2023/10/30 04:02:59;;;;;;;6.90;4.30;;;;;;;-144.30;73.46;85780.13;5031698;28;20202;-81
2023/10/30 04:05:26;;;;;;;5.67;4.27;;;;;;;-144.30;73.29;85778.13;5031490;28;20216;-81
2023/10/30 04:07:53;;;;;;;6.87;4.17;;;;;;;-144.30;73.68;85662.81;5031324;28;20193;-85
2023/10/30 04:10:21;;;;;;;6.70;4.63;;;;;;;-144.30;73.85;85790.06;5031264;28;20190;-84
2023/10/30 04:12:48;;;;;;;8.07;4.40;;;;;;;-144.30;74.33;85790.06;5029059;28;20208;-84
2023/10/30 04:15:17;;;;;;;8.47;4.23;;;;;;;-144.30;74.30;85770.19;5031567;28;20697;-86
2023/10/30 04:17:44;;;;;;;10.33;4.30;;;;;;;-144.30;75.05;85809.94;5030852;28;20221;-86
2023/10/30 04:20:12;;;;;;;6.80;4.20;;;;;;;-144.30;75.20;85815.91;5031275;28;20633;-86
2023/10/30 04:22:39;;;;;;;5.27;4.10;;;;;;;-144.30;75.43;85811.94;5031429;28;20859;-83
2023/10/30 04:25:07;;;;;;;7.87;4.53;;;;;;;-144.30;75.91;85839.78;5031732;28;20224;-85
2023/10/30 04:27:35;;;;;;;7.47;4.50;;;;;;;-144.30;75.97;85792.06;5031022;28;20264;-84
2023/10/30 04:30:02;;;;;;;7.43;4.37;;;;;;;-144.30;75.71;85825.84;5031412;28;20198;-84
2023/10/30 04:32:29;;;;;;;10.40;4.80;;;;;;;-144.30;75.87;85849.72;5031613;28;20201;-83
2023/10/30 04:34:56;;;;;;;8.20;4.87;;;;;;;-144.30;76.49;85833.81;5031074;28;20205;-86
2023/10/30 04:37:23;;;;;;;8.17;4.47;;;;;;;-144.30;76.75;85837.78;5031430;28;20609;-84
2023/10/30 04:39:50;;;;;;;10.27;4.40;;;;;;;-144.30;76.71;85760.25;5031379;28;20588;-85
2023/10/30 04:42:17;;;;;;;12.20;5.80;;;;;;;-144.30;77.12;85798.03;5027551;28;20287;-86
2023/10/30 04:44:45;;;;;;;8.43;5.40;;;;;;;-144.30;77.14;85815.91;5042006;28;20270;-87
2023/10/30 04:47:12;;;;;;;13.23;6.23;;;;;;;-144.30;76.91;85867.59;5051150;28;20196;-84
2023/10/30 04:49:39;;;;;;;7.50;5.10;;;;;;;-144.30;77.00;85849.72;5052206;28;20201;-84
2023/10/30 04:52:06;;;;;;;10.60;6.37;;;;;;;-144.30;77.39;85784.09;5050816;28;20204;-85
2023/10/30 04:54:33;;;;;;;12.50;7.47;;;;;;;-144.30;77.09;85859.66;5052526;28;20716;-84
2023/10/30 04:57:00;;;;;;;13.03;7.13;;;;;;;-144.30;77.43;85811.94;5051043;28;20303;-84
2023/10/30 04:59:27;;;;;;;13.33;6.87;;;;;;;-144.30;77.89;85841.75;5011764;28;20600;-84
2023/10/30 05:01:55;;;;;;;10.20;5.90;;;;;;;-144.30;78.18;85871.59;5010982;28;20555;-84
2023/10/30 05:04:22;;;;;;;9.87;6.00;;;;;;;-144.30;78.62;85869.59;5010808;28;20194;-83
2023/10/30 05:06:49;;;;;;;10.93;5.80;;;;;;;-144.30;78.69;85843.75;5011067;28;20198;-84
2023/10/30 05:09:15;;;;;;;10.10;5.77;;;;;;;-144.30;78.57;85825.84;5011336;28;20214;-77
2023/10/30 05:11:42;;;;;;;14.43;5.60;;;;;;;-144.30;79.05;85865.63;5027094;28;20204;-85
2023/10/30 05:14:09;;;;;;;11.00;6.03;;;;;;;-144.30;78.87;85847.72;5030361;28;20197;-82
2023/10/30 05:16:36;;;;;;;13.67;5.37;;;;;;;-144.30;78.71;85873.56;5030748;28;20617;-79
2023/10/30 05:19:05;;;;;;;19.03;5.87;;;;;;;-144.30;78.86;85837.78;5031102;28;20201;-81
2023/10/30 05:21:32;;;;;;;45.33;7.80;;;;;;;-144.30;78.86;85851.69;5030728;28;20224;-83
2023/10/30 05:23:59;;;;;;;15.53;4.97;;;;;;;-144.30;78.68;85668.78;5031250;28;20276;-85
2023/10/30 05:26:26;;;;;;;24.13;5.57;;;;;;;-144.30;78.58;85913.34;5030842;28;20193;-87
2023/10/30 05:28:53;;;;;;;10.50;5.37;;;;;;;-144.30;78.33;85796.03;5030351;28;20630;-84
2023/10/30 05:31:20;;;;;;;15.73;5.20;;;;;;;-144.30;77.67;85829.84;5029908;28;20207;-85
2023/10/30 05:33:47;;;;;;;23.73;5.37;;;;;;;-144.30;77.17;85762.22;5029476;28;20338;-85
2023/10/30 05:36:16;;;;;;;27.80;5.93;;;;;;;-144.30;77.42;85786.09;5029103;28;20229;-81
2023/10/30 05:38:42;;;;;;;16.57;6.17;;;;;;;-144.30;76.44;85809.94;5029367;28;20567;-83
2023/10/30 05:41:09;;;;;;;15.60;5.67;;;;;;;-144.30;75.57;85750.31;5029990;28;20665;-83
2023/10/30 05:43:36;;;;;;;8.03;5.37;;;;;;;-144.30;74.76;85778.13;5028753;28;20201;-81
2023/10/30 05:46:03;;;;;;;15.20;6.10;;;;;;;-144.30;73.34;85652.88;5029254;28;20602;-82
2023/10/30 05:48:30;;;;;;;9.73;5.23;;;;;;;-144.30;67.69;85491.84;5029659;28;20244;-83
2023/10/30 05:50:57;;;;;;;11.77;6.37;;;;;;;-144.30;62.80;84957.13;5029821;28;20201;-82
2023/10/30 05:53:25;;;;;;;9.17;5.60;;;;;;;-144.30;56.48;85054.53;5033294;28;20279;-86
2023/10/30 05:55:52;;;;;;;7.25;5.25;;;;;;;-144.30;51.55;84808.06;5035071;28;20205;-87
2023/10/30 05:58:19;;;;;;;9.68;4.93;;;;;;;-144.30;48.03;84613.28;5034755;28;20316;-82
2023/10/30 06:00:46;;;;;;;8.85;5.15;;;;;;;-144.30;45.52;84390.69;5033746;28;20208;-84
2023/10/30 06:03:14;;;;;;;13.05;4.97;;;;;;;-144.30;42.73;84273.44;5033569;28;20202;-81
2023/10/30 06:05:41;;;;;;;10.82;5.55;;;;;;;-144.30;41.59;84146.25;5033087;28;20642;-78
2023/10/30 06:08:08;;;;;;;11.15;5.25;;;;;;;-144.30;40.75;84108.50;5033127;28;20197;-75
2023/10/30 06:10:37;;;;;;;10.15;4.60;;;;;;;-144.30;41.90;84327.09;5033398;28;20284;-77
2023/10/30 06:13:04;;;;;;;13.82;5.30;;;;;;;-144.30;43.89;84565.56;5049710;28;20291;-75
2023/10/30 06:15:31;;;;;;;10.23;4.53;;;;;;;-144.30;45.93;84746.44;5053425;28;20203;-77
2023/10/30 06:17:58;;;;;;;22.17;5.38;;;;;;;-144.30;48.27;84851.78;5053124;28;20319;-80
2023/10/30 06:20:25;;;;;;;9.05;5.13;;;;;;;-144.30;50.05;84982.97;5052793;28;20207;-78
2023/10/30 06:22:52;;;;;;;8.15;4.88;;;;;;;-144.30;51.67;85094.28;5053200;28;20972;-79
2023/10/30 06:25:19;;;;;;;10.90;5.50;;;;;;;-144.30;53.01;85138.00;5052907;28;20205;-78
2023/10/30 06:27:47;;;;;;;11.05;5.50;;;;;;;-144.30;54.66;85215.53;5052622;28;20231;-78
2023/10/30 06:30:14;;;;;;;12.40;5.72;;;;;;;-144.30;56.07;85231.44;5052558;28;20208;-76
2023/10/30 06:32:42;;;;;;;14.10;5.78;;;;;;;-144.30;57.05;85326.84;5038395;28;20201;-76
2023/10/30 06:35:09;;;;;;;10.38;5.18;;;;;;;-144.30;57.55;85312.94;5032777;28;20743;-76
2023/10/30 06:37:36;;;;;;;9.38;5.10;;;;;;;-144.30;57.83;85324.88;5032644;28;20227;-77
2023/10/30 06:40:04;;;;;;;11.52;5.22;;;;;;;-144.30;58.73;85368.59;5032801;28;20216;-77
2023/10/30 06:42:31;;;;;;;7.32;5.35;;;;;;;-144.30;59.17;85360.66;5033055;28;20234;-76
2023/10/30 06:44:59;;;;;;;8.20;5.17;;;;;;;-144.30;60.04;85390.47;5032729;28;20292;-75
2023/10/30 06:47:28;;;;;;;13.25;5.53;;;;;;;-144.30;60.36;85378.53;5032648;28;20202;-74
2023/10/30 06:49:55;;;;;;;6.03;4.50;;;;;;;-144.30;60.47;85376.56;5032583;28;20205;-73
2023/10/30 06:52:22;;;;;;;7.93;4.83;;;;;;;-144.30;61.04;85404.38;5031889;28;20194;-75
2023/10/30 06:54:49;;;;;;;9.53;4.63;;;;;;;-144.30;61.47;85358.66;5032538;28;20207;-75
2023/10/30 06:57:16;;;;;;;6.07;4.90;;;;;;;-144.30;62.27;85384.50;5032618;28;20233;-73
2023/10/30 06:59:43;;;;;;;8.63;5.30;;;;;;;-144.30;62.65;85384.50;5031949;28;20197;-74
2023/10/30 07:02:11;;;;;;;8.70;5.37;;;;;;;-144.30;63.02;85426.25;5032025;28;20197;-75
2023/10/30 07:04:39;;;;;;;6.40;5.03;;;;;;;-144.30;63.09;85416.31;5032535;28;20198;-75
2023/10/30 07:07:06;;;;;;;10.80;5.20;;;;;;;-144.30;62.87;85392.47;5032186;28;20193;-74
2023/10/30 07:09:33;;;;;;;12.63;5.13;;;;;;;-144.30;63.09;85324.88;5032177;28;20584;-74
2023/10/30 07:12:00;;;;;;;8.87;4.93;;;;;;;-144.30;63.22;85416.31;5032202;28;20585;-74
2023/10/30 07:14:28;;;;;;;8.97;4.30;;;;;;;-144.30;62.85;85364.63;5032016;28;20197;-74
2023/10/30 07:16:55;;;;;;;8.87;5.30;;;;;;;-144.30;62.74;85925.25;5031686;28;20288;-75
2023/10/30 07:19:23;;;;;;;10.93;5.30;;;;;;;-144.30;63.12;85334.81;5031840;28;20194;-74
2023/10/30 07:21:50;;;;;;;11.70;5.23;;;;;;;-144.30;63.07;85197.66;5031776;28;20193;-75
2023/10/30 07:24:17;;;;;;;13.53;5.50;;;;;;;-144.30;63.34;85348.72;5031565;28;20201;-76
2023/10/30 07:26:44;;;;;;;8.43;4.93;;;;;;;-144.30;63.35;85334.81;5031751;28;20579;-76
2023/10/30 07:29:11;;;;;;;9.63;4.80;;;;;;;-144.30;62.61;85330.84;5031671;28;20193;-76
2023/10/30 07:31:38;;;;;;;8.10;4.72;;;;;;;-144.30;62.66;85969.00;5031694;28;20204;-77
2023/10/30 07:34:05;;;;;;;9.63;5.13;;;;;;;-144.30;62.57;85305.00;5027834;28;20220;-76
2023/10/30 07:36:33;;;;;;;12.75;4.93;;;;;;;-144.30;62.34;85289.09;5035689;28;20223;-75
2023/10/30 07:39:01;;;;;;;19.77;5.47;;;;;;;-144.30;62.19;85297.03;5051255;28;20217;-76
2023/10/30 07:41:27;;;;;;;8.77;4.30;;;;;;;-144.30;61.94;85217.53;5051386;28;20204;-75
2023/10/30 07:43:54;;;;;;;8.23;4.00;;;;;;;-144.30;61.66;85273.19;5050869;28;20214;-75
2023/10/30 07:46:21;;;;;;;13.45;4.50;;;;;;;-144.30;61.44;85241.38;5051308;28;20210;-75
2023/10/30 07:48:48;;;;;;;7.82;4.03;;;;;;;-144.30;60.81;85265.22;5050495;28;20203;-75
2023/10/30 07:51:15;;;;;;;4.80;3.30;;;;;;;-144.30;60.56;85233.44;5051088;28;20205;-75
2023/10/30 07:53:43;;;;;;;4.82;3.55;;;;;;;-144.30;60.09;85229.44;5051554;28;20207;-74
2023/10/30 07:56:11;;;;;;;9.18;3.85;;;;;;;-144.30;59.65;85231.44;5050757;28;20196;-75
2023/10/30 07:58:38;;;;;;;4.45;3.30;;;;;;;-144.30;59.20;85229.44;5051170;28;20216;-75
2023/10/30 08:01:05;;;;;;;5.50;3.28;;;;;;;-144.30;59.29;85233.44;5043466;28;20216;-75
2023/10/30 08:03:32;;;;;;;7.75;3.88;;;;;;;-144.30;59.28;85185.72;5031515;28;20580;-74
2023/10/30 08:05:59;;;;;;;6.57;3.08;;;;;;;-144.30;58.91;85138.00;5031446;28;20589;-73
2023/10/30 08:08:28;;;;;;;5.82;3.15;;;;;;;-144.30;58.59;85207.59;5031079;28;20200;-74
2023/10/30 08:10:57;;;;;;;5.95;3.05;;;;;;;-144.30;58.33;85189.69;5031116;28;20208;-75
2023/10/30 08:13:23;;;;;;;7.00;3.88;;;;;;;-144.30;58.42;85171.81;5030979;28;20201;-73
2023/10/30 08:15:51;;;;;;;5.30;3.38;;;;;;;-144.30;58.39;85189.69;5030474;28;20215;-75
2023/10/30 08:18:20;;;;;;;7.97;3.13;;;;;;;-144.30;58.35;85145.97;5031096;28;20568;-72
2023/10/30 08:20:47;;;;;;;8.77;4.00;;;;;;;-144.30;58.83;85094.28;5030893;28;20263;-74
2023/10/30 08:23:15;;;;;;;6.78;3.92;;;;;;;-144.30;58.66;85155.91;5030482;28;20666;-73
2023/10/30 08:25:42;;;;;;;8.43;3.55;;;;;;;-144.30;58.33;85130.06;5030635;28;20201;-74
2023/10/30 08:28:11;;;;;;;7.75;3.80;;;;;;;-144.30;58.33;85126.09;5030573;28;20193;-76
2023/10/30 08:30:38;;;;;;;11.90;4.57;;;;;;;-144.30;58.56;85141.97;5030524;28;20292;-74
2023/10/30 08:33:05;;;;;;;8.52;4.80;;;;;;;-144.30;58.69;85149.94;5030648;28;20229;-74
2023/10/30 08:35:32;;;;;;;10.60;4.40;;;;;;;-144.30;58.38;85118.13;5030023;28;20275;-74
2023/10/30 08:37:59;;;;;;;6.50;3.58;;;;;;;-144.30;58.07;85110.19;5030135;28;20684;-73
2023/10/30 08:40:26;;;;;;;6.60;3.85;;;;;;;-144.30;58.20;85126.09;5030390;28;20280;-74
2023/10/30 08:42:53;;;;;;;5.93;3.20;;;;;;;-144.30;57.36;85068.44;5030159;28;20287;-74
2023/10/30 08:45:22;;;;;;;14.68;3.60;;;;;;;-144.30;57.16;85082.34;5030476;28;20205;-76
2023/10/30 08:47:49;;;;;;;10.45;3.67;;;;;;;-144.30;57.15;85086.31;5030208;28;20217;-73
2023/10/30 08:50:16;;;;;;;14.52;4.47;;;;;;;-144.30;57.34;85084.34;5029953;28;20201;-74
2023/10/30 08:52:43;;;;;;;4.95;3.45;;;;;;;-144.30;57.05;85094.28;5030423;28;20197;-74
2023/10/30 08:55:10;;;;;;;5.95;3.10;;;;;;;-144.30;56.80;85080.38;5030089;28;20208;-75
2023/10/30 08:57:37;;;;;;;8.88;3.90;;;;;;;-144.30;56.62;85042.59;5030153;28;20207;-75
2023/10/30 09:00:06;;;;;;;6.10;3.70;;;;;;;-144.30;56.80;85056.50;5030269;28;20576;-75
2023/10/30 09:02:35;;;;;;;4.85;3.50;;;;;;;-144.30;56.34;85034.66;5030562;28;20684;-75
2023/10/30 09:05:03;;;;;;;5.65;3.20;;;;;;;-144.30;56.37;85044.59;5029993;28;20220;-76
2023/10/30 09:07:31;;;;;;;9.88;3.60;;;;;;;-144.30;56.18;84919.34;5029824;28;20196;-74
2023/10/30 09:09:58;;;;;;;5.70;3.88;;;;;;;-144.30;55.76;85010.78;5029435;28;20198;-76
2023/10/30 09:12:25;;;;;;;11.43;3.63;;;;;;;-144.30;55.61;85014.78;5027203;28;20204;-75
2023/10/30 09:14:52;;;;;;;6.95;3.70;;;;;;;-144.30;55.65;85024.72;5043115;28;20730;-78
2023/10/30 09:17:19;;;;;;;7.22;3.22;;;;;;;-144.30;55.46;84982.97;5049346;28;20216;-78
2023/10/30 09:19:47;;;;;;;7.03;3.40;;;;;;;-144.30;55.34;84879.59;5049198;28;20212;-78
2023/10/30 09:22:14;;;;;;;7.28;3.42;;;;;;;-144.30;55.25;84915.38;5048211;28;20308;-78
2023/10/30 09:24:41;;;;;;;5.00;4.22;;;;;;;-144.30;55.05;84953.16;5028959;28;20197;-80
2023/10/30 09:27:09;;;;;;;7.85;3.53;;;;;;;-144.30;55.13;84973.03;5029726;28;20213;-79
2023/10/30 09:29:36;;;;;;;5.50;3.20;;;;;;;-144.30;54.84;84965.06;5033418;28;20633;-79
2023/10/30 09:32:03;;;;;;;14.70;4.10;;;;;;;-144.30;54.59;84955.13;5033603;28;20197;-79
2023/10/30 09:34:30;;;;;;;7.63;3.50;;;;;;;-144.30;54.36;85195.66;5034002;28;20201;-79
2023/10/30 09:36:59;;;;;;;8.85;4.60;;;;;;;-144.30;54.14;84911.41;5033589;28;20261;-74
2023/10/30 09:39:26;;;;;;;10.18;4.25;;;;;;;-144.30;54.30;84885.56;5033745;28;20243;-76
2023/10/30 09:41:54;;;;;;;12.43;4.30;;;;;;;-144.30;54.10;84901.47;5033633;28;20640;-76
2023/10/30 09:44:22;;;;;;;6.70;4.18;;;;;;;-144.30;54.04;84889.53;5033222;28;20673;-75
2023/10/30 09:46:50;;;;;;;13.13;4.95;;;;;;;-144.30;54.15;84899.47;5033304;28;20216;-75
2023/10/30 09:49:17;;;;;;;6.90;3.53;;;;;;;-144.30;53.56;84861.72;5033483;28;20201;-78
2023/10/30 09:51:46;;;;;;;8.52;3.78;;;;;;;-144.30;53.84;84897.50;5029720;28;20248;-79
2023/10/30 09:54:17;;;;;;;5.43;3.45;;;;;;;-144.30;54.56;84909.41;5024074;28;20213;-79
2023/10/30 09:56:44;;;;;;;7.30;4.07;;;;;;;-144.30;54.03;84869.66;5033398;28;20212;-82
2023/10/30 09:59:13;;;;;;;11.60;4.43;;;;;;;-144.30;53.48;84883.59;5033465;28;20308;-77
2023/10/30 10:01:40;;;;;;;14.15;4.15;;;;;;;-144.30;53.27;84867.69;5033384;28;20201;-77
2023/10/30 10:04:07;;;;;;;10.38;3.80;;;;;;;-144.30;53.36;84851.78;5032870;28;20198;-75
2023/10/30 10:06:34;;;;;;;8.45;3.60;;;;;;;-144.30;52.85;84833.88;5033370;28;20197;-82
2023/10/30 10:09:04;;;;;;;11.63;3.90;;;;;;;-144.30;52.97;84843.84;5033130;28;20202;-82
2023/10/30 10:11:36;;;;;;;4.88;3.25;;;;;;;-144.30;55.13;84821.97;5033079;28;20212;-77
2023/10/30 10:14:04;;;;;;;9.43;3.95;;;;;;;-144.30;53.26;84831.91;5033183;28;20228;-76
2023/10/30 10:16:31;;;;;;;9.48;3.85;;;;;;;-144.30;52.78;84780.22;5032042;28;20205;-76
2023/10/30 10:18:57;;;;;;;5.53;3.53;;;;;;;-144.30;52.22;84827.94;5033208;28;20736;-75
2023/10/30 10:21:25;;;;;;;8.80;4.30;;;;;;;-144.30;52.25;84798.13;5033165;28;20205;-75
2023/10/30 10:23:52;;;;;;;6.18;3.63;;;;;;;-144.30;52.19;84764.31;5032897;28;20233;-76
2023/10/30 10:26:19;;;;;;;14.85;4.13;;;;;;;-144.30;51.94;84760.34;5033048;28;20205;-77
2023/10/30 10:28:48;;;;;;;7.80;3.38;;;;;;;-144.30;51.83;84764.31;5032493;28;20581;-75
2023/10/30 10:31:15;;;;;;;5.60;3.45;;;;;;;-144.30;51.62;84788.19;5029538;28;20248;-76
2023/10/30 10:33:41;;;;;;;8.32;3.35;;;;;;;-144.30;51.87;84766.31;5032323;28;20196;-75
2023/10/30 10:36:09;;;;;;;8.50;3.20;;;;;;;-144.30;51.72;84762.34;5031964;28;20228;-75
2023/10/30 10:38:36;;;;;;;4.82;3.50;;;;;;;-144.30;51.83;84756.38;5028833;28;20267;-75
2023/10/30 10:41:05;;;;;;;5.57;3.38;;;;;;;-144.30;51.91;84788.19;5032450;28;20594;-78
2023/10/30 10:43:33;;;;;;;11.80;3.83;;;;;;;-144.30;53.29;84728.56;5033643;28;20589;-79
2023/10/30 10:46:02;;;;;;;7.15;3.58;;;;;;;-144.30;52.66;84748.44;5034495;28;20287;-78
2023/10/30 10:48:29;;;;;;;8.48;4.22;;;;;;;-144.30;52.00;84752.41;5033258;28;20196;-77
2023/10/30 10:50:57;;;;;;;6.70;5.28;;;;;;;-144.30;52.08;84724.56;5033495;28;20207;-78
2023/10/30 10:53:27;;;;;;;4.63;3.83;;;;;;;-144.30;52.27;84768.31;5032927;28;20202;-81
2023/10/30 10:56:03;;;;;;;8.50;4.63;;;;;;;-144.30;52.90;84752.41;5033663;28;20287;-78
2023/10/30 10:58:41;;;;;;;12.98;4.80;;;;;;;-144.30;52.44;84720.59;5033550;28;20689;-80
2023/10/30 11:01:16;;;;;;;13.43;4.20;;;;;;;-144.30;52.12;84740.47;5033986;28;20598;-78
2023/10/30 11:03:45;;;;;;;6.65;4.40;;;;;;;-144.30;52.21;84712.66;5032699;28;20204;-78
2023/10/30 11:06:12;;;;;;;9.25;4.10;;;;;;;-144.30;52.27;84676.88;5034774;28;20193;-79
2023/10/30 11:08:49;;;;;;;10.30;4.07;;;;;;;-144.30;52.77;84704.69;5035417;28;20213;-79
2023/10/30 11:11:21;;;;;;;12.82;4.78;;;;;;;-144.30;53.43;84678.84;5035332;28;20192;-80
2023/10/30 11:14:10;;;;;;;7.97;5.32;;;;;;;-144.30;53.59;84641.09;5035677;28;20190;-79
2023/10/30 11:16:46;;;;;;;8.95;4.72;;;;;;;-144.30;53.26;84694.75;5035192;28;20276;-79